Time;durP1;ratioP1;P1;durP2;ratioP2;P2;SDS_P1;SDS_P2;PMS_P1;PMS_P2;Temp;Humidity;BMP_temperature;BMP_pressure;BME280_temperature;BME280_humidity;BME280_pressure;Samples;Min_cycle;Max_cycle;Signal;HPM_P1;HPM_P2
2022/08/25 00:00:33;;;;;;;4.53;1.10;;;;;;;22.00;69.76;99794.50;5057807;28;20291;-61
2022/08/25 00:03:27;;;;;;;3.67;1.00;;;;;;;22.23;68.52;99812.34;5056935;28;20342;-63
2022/08/25 00:06:11;;;;;;;10.27;1.87;;;;;;;22.22;67.01;99818.63;5056605;28;20294;-63
2022/08/25 00:08:59;;;;;;;10.40;1.30;;;;;;;22.04;68.14;99790.63;5058609;28;20353;-61
2022/08/25 00:11:42;;;;;;;;;;;;;;;22.35;68.27;99822.09;5044232;28;20287;-62
2022/08/25 00:17:26;;;;;;;4.73;0.90;;;;;;;22.40;67.79;99814.63;5057843;28;20337;-63
2022/08/25 00:20:08;;;;;;;7.13;1.03;;;;;;;22.45;67.52;99805.47;5057952;28;20276;-62
2022/08/25 00:22:57;;;;;;;5.90;1.30;;;;;;;22.35;67.72;99816.78;5058327;28;20052;-63
2022/08/25 00:25:55;;;;;;;9.37;1.20;;;;;;;22.37;68.60;99809.53;5056197;28;20334;-62
2022/08/25 00:29:09;;;;;;;17.50;1.93;;;;;;;22.67;68.03;99805.59;5017430;28;20311;-63
2022/08/25 00:32:15;;;;;;;11.57;1.13;;;;;;;22.91;66.36;99812.69;5057878;28;20371;-60
2022/08/25 00:35:23;;;;;;;7.13;1.10;;;;;;;23.03;66.33;99817.97;5048366;28;20053;-62
2022/08/25 00:38:08;;;;;;;12.07;1.50;;;;;;;23.11;66.47;99820.06;5060799;28;20044;-61
2022/08/25 00:41:07;;;;;;;11.07;1.40;;;;;;;23.19;65.77;99815.03;5058103;28;21037;-62
2022/08/25 00:43:54;;;;;;;9.87;1.50;;;;;;;23.22;64.73;99801.47;5060359;28;20052;-63
2022/08/25 00:46:53;;;;;;;11.23;1.50;;;;;;;23.34;65.29;99809.47;5060173;28;20052;-61
2022/08/25 00:49:37;;;;;;;19.47;1.77;;;;;;;23.40;63.76;99804.53;5026052;28;20481;-64
2022/08/25 00:52:29;;;;;;;8.00;1.07;;;;;;;23.54;64.22;99799.94;5058846;28;20049;-62
2022/08/25 01:01:30;;;;;;;7.17;1.20;;;;;;;23.63;63.73;99784.06;5060203;28;20069;-63
2022/08/25 01:09:53;;;;;;;6.93;1.33;;;;;;;23.88;63.00;99774.16;5060691;28;20068;-65
2022/08/25 01:12:41;;;;;;;4.03;0.80;;;;;;;24.02;63.33;99768.56;5060330;28;20053;-61
2022/08/25 01:15:31;;;;;;;10.37;1.20;;;;;;;24.11;61.75;99769.63;5059339;28;20047;-61
2022/08/25 01:18:19;;;;;;;13.60;1.40;;;;;;;24.02;61.63;99768.56;5059494;28;20059;-65
2022/08/25 01:21:41;;;;;;;5.77;1.00;;;;;;;24.05;60.98;99767.47;5060635;28;20045;-62
2022/08/25 01:24:42;;;;;;;9.57;1.17;;;;;;;24.01;61.02;99740.19;5059799;28;20052;-63
2022/08/25 01:27:25;;;;;;;7.23;1.23;;;;;;;23.91;59.74;99720.53;5060233;28;20071;-64
2022/08/25 01:32:45;;;;;;;7.80;1.00;;;;;;;24.01;59.68;99753.53;5057441;28;19951;-63
2022/08/25 01:35:26;;;;;;;31.23;2.70;;;;;;;23.78;60.48;99750.03;5059496;28;20057;-63
2022/08/25 01:40:57;;;;;;;27.63;2.13;;;;;;;23.50;62.52;99751.34;5016122;28;20045;-62
2022/08/25 01:43:50;;;;;;;7.33;1.30;;;;;;;23.42;61.81;99751.09;5060059;28;20258;-63
2022/08/25 01:46:42;;;;;;;8.17;1.17;;;;;;;23.14;61.47;99755.91;5059387;28;20037;-64
2022/08/25 01:49:18;;;;;;;10.27;1.17;;;;;;;23.05;62.30;99740.59;5059489;28;20076;-62
2022/08/25 01:52:00;;;;;;;11.30;0.98;;;;;;;23.11;62.00;99750.78;5035306;28;20053;-64
2022/08/25 01:54:55;;;;;;;4.60;1.10;;;;;;;23.33;62.14;99744.66;5059048;28;20092;-63
2022/08/25 01:57:43;;;;;;;9.10;1.03;;;;;;;23.78;62.07;99743.84;5059580;28;20334;-62
2022/08/25 02:00:25;;;;;;;13.60;1.60;;;;;;;23.83;60.54;99744.34;5059669;28;20279;-64
2022/08/25 02:03:03;;;;;;;7.90;1.40;;;;;;;23.86;60.72;99746.75;5058102;28;20093;-64
2022/08/25 02:06:08;;;;;;;14.03;1.20;;;;;;;23.94;59.66;99749.66;5059412;28;20063;-63
2022/08/25 02:08:57;;;;;;;7.82;0.98;;;;;;;24.07;59.52;99745.03;5054981;28;20072;-62
2022/08/25 02:12:01;;;;;;;9.77;1.00;;;;;;;23.95;59.75;99724.66;5056630;28;20048;-61
2022/08/25 02:14:47;;;;;;;6.23;1.67;;;;;;;24.04;59.40;99736.44;5058651;28;20053;-62
2022/08/25 02:17:42;;;;;;;8.60;1.20;;;;;;;23.87;60.71;99727.13;5059070;28;20147;-64
2022/08/25 02:20:25;;;;;;;14.77;1.30;;;;;;;24.02;59.49;99751.72;5017150;28;20056;-64
2022/08/25 02:23:09;;;;;;;11.53;1.20;;;;;;;24.06;57.87;99727.34;5017192;28;20063;-63
2022/08/25 02:25:56;;;;;;;6.00;0.88;;;;;;;23.99;58.02;99731.47;5059272;28;20049;-64
2022/08/25 02:28:40;;;;;;;8.07;1.10;;;;;;;23.91;58.74;99723.22;5022385;28;20080;-65
2022/08/25 02:31:21;;;;;;;7.87;1.23;;;;;;;24.07;59.16;99718.34;5059034;28;20052;-62
2022/08/25 02:33:58;;;;;;;4.67;1.10;;;;;;;24.54;57.65;99720.78;5059309;28;20061;-63
2022/08/25 02:36:44;;;;;;;7.18;1.10;;;;;;;24.91;55.60;99729.22;5057590;28;20057;-63
2022/08/25 02:42:08;;;;;;;7.55;1.10;;;;;;;25.26;53.83;99709.34;5021873;28;20060;-65
2022/08/25 02:44:49;;;;;;;9.23;1.60;;;;;;;25.27;53.86;99702.19;5057925;28;20037;-68
2022/08/25 02:47:36;;;;;;;8.43;1.30;;;;;;;25.37;53.37;99703.91;5058992;28;20053;-64
2022/08/25 02:50:44;;;;;;;13.50;1.40;;;;;;;25.43;54.45;99690.97;5058071;28;20045;-62
2022/08/25 02:53:49;;;;;;;8.90;0.93;;;;;;;25.60;53.44;99690.34;5058867;28;20083;-61
2022/08/25 02:56:27;;;;;;;11.87;1.50;;;;;;;25.72;52.58;99702.63;5031980;28;20055;-64
2022/08/25 02:59:10;;;;;;;4.80;0.90;;;;;;;25.68;53.15;99695.00;5058443;28;20044;-61
2022/08/25 03:02:28;;;;;;;114.20;7.10;;;;;;;25.77;52.62;99700.41;5022212;28;20075;-63
2022/08/25 03:05:06;;;;;;;14.00;1.70;;;;;;;25.75;52.16;99688.13;5058284;28;20120;-65
2022/08/25 03:07:50;;;;;;;9.00;1.10;;;;;;;25.81;53.17;99691.13;5011533;28;20072;-63
2022/08/25 03:13:19;;;;;;;3.50;0.65;;;;;;;25.87;50.17;99683.56;5053666;28;20072;-61
2022/08/25 03:16:06;;;;;;;10.60;1.00;;;;;;;25.76;49.79;99698.72;5010922;28;20080;-62
2022/08/25 03:19:24;;;;;;;7.70;1.67;;;;;;;25.67;51.93;99680.78;5057992;28;20090;-62
2022/08/25 03:22:41;;;;;;;23.07;3.10;;;;;;;25.63;52.38;99691.91;5015821;28;20133;-63
2022/08/25 03:32:19;;;;;;;10.47;1.23;;;;;;;25.16;49.27;99695.03;5025832;28;20085;-63
2022/08/25 03:35:13;;;;;;;19.43;1.83;;;;;;;25.07;50.73;99691.34;5027360;28;20049;-63
2022/08/25 03:38:00;;;;;;;10.27;1.30;;;;;;;24.94;51.73;99682.69;5029737;28;20046;-63
2022/08/25 03:40:53;;;;;;;47.20;2.85;;;;;;;24.87;50.43;99674.34;5027266;28;20052;-63
2022/08/25 03:43:40;;;;;;;8.33;0.93;;;;;;;24.81;51.64;99664.19;4967098;28;20117;-65
2022/08/25 03:46:33;;;;;;;7.13;1.13;;;;;;;24.84;54.00;99658.56;5028319;28;20092;-61
2022/08/25 03:49:36;;;;;;;6.67;1.10;;;;;;;24.87;53.33;99669.00;5027755;28;20045;-64
2022/08/25 03:52:18;;;;;;;9.97;1.00;;;;;;;24.76;51.32;99669.03;5026963;28;20070;-61
2022/08/25 03:55:00;;;;;;;6.20;0.97;;;;;;;24.62;48.44;99669.38;5027144;28;20069;-65
2022/08/25 03:58:11;;;;;;;17.20;1.50;;;;;;;24.40;49.57;99660.47;5028428;28;20046;-61
2022/08/25 04:00:55;;;;;;;8.90;0.80;;;;;;;24.35;51.76;99667.19;4982013;28;20057;-61
2022/08/25 04:03:29;;;;;;;13.13;1.48;;;;;;;24.38;53.40;99673.09;5028367;28;20065;-59
2022/08/25 04:09:00;;;;;;;17.10;1.27;;;;;;;24.25;54.40;99619.88;5033456;28;20069;-62
2022/08/25 04:11:58;;;;;;;13.80;1.10;;;;;;;24.43;55.46;99620.16;4992729;28;20045;-62
2022/08/25 04:17:32;;;;;;;77.03;5.05;;;;;;;24.67;55.79;99656.50;5060541;28;20053;-62
2022/08/25 04:20:17;;;;;;;10.03;1.33;;;;;;;24.50;55.85;99661.41;5061265;28;20067;-61
2022/08/25 04:22:59;;;;;;;8.57;1.07;;;;;;;24.42;56.04;99663.88;5061713;28;20061;-60
2022/08/25 04:25:38;;;;;;;9.43;1.30;;;;;;;24.37;56.27;99668.75;5062076;28;20310;-62
2022/08/25 04:28:41;;;;;;;29.17;2.40;;;;;;;24.26;56.83;99666.97;5062238;28;20049;-62
2022/08/25 04:31:23;;;;;;;16.90;2.43;;;;;;;24.25;56.27;99662.59;5060380;28;20045;-61
2022/08/25 04:34:05;;;;;;;72.87;5.23;;;;;;;24.23;55.83;99653.84;5061581;28;20155;-60
2022/08/25 04:37:07;;;;;;;6.53;1.20;;;;;;;24.14;55.69;99649.31;5061441;28;20065;-61
2022/08/25 04:39:41;;;;;;;7.10;1.30;;;;;;;24.11;56.33;99641.53;5061255;28;20075;-64
2022/08/25 04:42:18;;;;;;;8.97;1.77;;;;;;;24.05;56.42;99640.22;5061309;28;20052;-62
2022/08/25 04:45:15;;;;;;;11.93;1.30;;;;;;;24.05;56.68;99640.22;5059721;28;20116;-65
2022/08/25 04:51:06;;;;;;;9.43;1.40;;;;;;;23.79;54.00;99606.81;5061569;28;20041;-64
2022/08/25 04:53:53;;;;;;;14.83;1.20;;;;;;;23.88;54.16;99612.25;5060230;28;20112;-63
2022/08/25 04:56:34;;;;;;;6.70;1.30;;;;;;;24.02;55.66;99631.63;5014112;28;20060;-65
2022/08/25 04:59:25;;;;;;;7.27;1.17;;;;;;;23.95;56.10;99623.28;5060128;28;20080;-64
2022/08/25 05:02:10;;;;;;;18.97;1.97;;;;;;;24.02;55.86;99628.97;5060938;28;20045;-66
2022/08/25 05:04:50;;;;;;;;;;;;;;;24.06;54.45;99625.91;5061555;28;20040;-66
2022/08/25 05:07:28;;;;;;;4.87;0.90;;;;;;;24.05;54.47;99621.53;5060661;28;20217;-69
2022/08/25 05:10:19;;;;;;;10.43;1.40;;;;;;;24.01;54.11;99617.44;5060312;28;20060;-63
2022/08/25 05:13:02;;;;;;;10.10;1.20;;;;;;;24.00;54.44;99620.22;5060406;28;20045;-67
2022/08/25 05:15:58;;;;;;;30.33;2.00;;;;;;;23.93;54.80;99613.69;5011216;28;20044;-64
2022/08/25 05:19:14;;;;;;;9.80;1.40;;;;;;;23.81;54.06;99616.41;5060448;28;20049;-67
2022/08/25 05:22:01;;;;;;;39.20;2.50;;;;;;;23.73;55.03;99596.66;5060600;28;20084;-65
2022/08/25 05:24:53;;;;;;;8.17;1.23;;;;;;;23.75;55.39;99605.41;5016445;28;20091;-65
2022/08/25 05:27:30;;;;;;;13.10;1.00;;;;;;;23.68;56.13;99613.84;5060579;28;20049;-67
2022/08/25 05:30:16;;;;;;;18.07;1.33;;;;;;;23.63;55.91;99618.72;5060869;28;20045;-67
2022/08/25 05:33:04;;;;;;;42.53;3.20;;;;;;;23.53;55.72;99623.09;5059104;28;20064;-65
2022/08/25 05:35:48;;;;;;;13.07;1.07;;;;;;;22.86;53.96;99548.47;5059816;28;20080;-66
2022/08/25 05:38:29;;;;;;;44.47;3.13;;;;;;;23.18;55.87;99632.06;5057716;28;20306;-65
2022/08/25 05:41:14;;;;;;;7.57;1.10;;;;;;;23.09;57.10;99611.50;5059784;28;20095;-66
2022/08/25 05:44:06;;;;;;;13.93;1.23;;;;;;;23.16;56.86;99610.03;5059839;28;20049;-66
2022/08/25 05:46:49;;;;;;;4.30;1.27;;;;;;;23.27;55.40;99616.34;5060246;28;20056;-66
2022/08/25 05:49:34;;;;;;;7.77;0.80;;;;;;;23.37;55.68;99611.97;5060480;28;20060;-64
2022/08/25 05:52:17;;;;;;;11.55;1.08;;;;;;;23.34;55.90;99617.53;5059877;28;20210;-65
2022/08/25 05:54:51;;;;;;;9.17;1.17;;;;;;;23.21;55.49;99623.88;4980459;28;20068;-67
2022/08/25 05:57:31;;;;;;;17.17;1.80;;;;;;;23.09;55.50;99616.84;5059521;28;20080;-63
2022/08/25 06:00:20;;;;;;;7.57;1.40;;;;;;;23.01;56.46;99624.56;5059480;28;20158;-63
2022/08/25 06:02:59;;;;;;;12.87;1.30;;;;;;;22.87;56.08;99591.00;5060170;28;20065;-62
2022/08/25 06:05:46;;;;;;;12.97;1.00;;;;;;;23.04;56.57;99611.03;5060325;28;20080;-65
2022/08/25 06:08:38;;;;;;;10.57;1.30;;;;;;;22.81;57.01;99578.13;5018270;28;20060;-67
2022/08/25 06:12:01;;;;;;;10.20;1.23;;;;;;;22.98;56.15;99611.50;5053916;28;20065;-65
2022/08/25 06:14:54;;;;;;;14.97;1.10;;;;;;;22.80;56.27;99590.63;5046572;28;20060;-63
2022/08/25 06:18:40;;;;;;;8.67;1.57;;;;;;;22.90;55.53;99619.22;5058640;28;20060;-63
2022/08/25 06:21:59;;;;;;;6.47;1.20;;;;;;;22.93;56.50;99613.63;5027905;28;20088;-65
2022/08/25 06:24:43;;;;;;;10.30;1.50;;;;;;;22.86;56.50;99607.09;5022600;28;20175;-65
2022/08/25 06:27:23;;;;;;;15.67;1.57;;;;;;;22.82;56.22;99602.00;5003730;28;20049;-65
2022/08/25 06:30:15;;;;;;;11.57;1.20;;;;;;;22.85;56.20;99605.41;5026943;28;20081;-65
2022/08/25 06:33:04;;;;;;;10.27;1.92;;;;;;;22.83;55.23;99598.34;5028352;28;20054;-63
2022/08/25 06:36:27;;;;;;;12.47;1.27;;;;;;;22.79;55.58;99596.94;5027538;28;20061;-66
2022/08/25 06:39:23;;;;;;;15.03;1.87;;;;;;;22.71;55.87;99593.97;4951168;28;20106;-69
2022/08/25 06:42:55;;;;;;;7.27;1.03;;;;;;;22.67;55.80;99602.34;4980060;28;20072;-66
2022/08/25 06:46:14;;;;;;;7.05;0.90;;;;;;;22.54;56.85;99605.09;4906068;28;20068;-65
2022/08/25 06:52:21;;;;;;;13.40;1.43;;;;;;;22.52;57.82;99610.53;4976961;28;20400;-65
2022/08/25 06:55:17;;;;;;;8.47;1.40;;;;;;;22.47;57.67;99596.75;4980576;28;20114;-64
2022/08/25 06:58:30;;;;;;;9.47;1.17;;;;;;;22.48;57.33;99600.25;4979951;28;20061;-65
2022/08/25 07:01:42;;;;;;;6.77;1.00;;;;;;;22.47;57.47;99614.53;5005272;28;20054;-64
2022/08/25 07:04:44;;;;;;;9.17;0.90;;;;;;;22.43;57.89;99610.41;5052601;28;20115;-64
2022/08/25 07:07:25;;;;;;;10.17;1.07;;;;;;;22.30;57.20;99600.69;5058386;28;20052;-64
2022/08/25 07:10:21;;;;;;;9.13;1.57;;;;;;;22.07;57.84;99593.56;5058382;28;20060;-65
2022/08/25 07:13:09;;;;;;;6.23;0.70;;;;;;;22.17;58.34;99622.00;5057908;28;20393;-66
2022/08/25 07:16:15;;;;;;;21.20;1.93;;;;;;;22.10;58.92;99610.13;5058631;28;20044;-65
2022/08/25 07:19:37;;;;;;;9.17;0.97;;;;;;;21.76;60.18;99559.44;5057133;28;20053;-64
2022/08/25 07:22:15;;;;;;;8.73;1.53;;;;;;;22.04;60.62;99623.03;5051535;28;20060;-64
2022/08/25 07:25:18;;;;;;;11.45;0.95;;;;;;;22.03;60.30;99624.00;5043103;28;20079;-63
2022/08/25 07:28:13;;;;;;;6.00;1.10;;;;;;;21.94;61.09;99626.38;4985729;28;20113;-64
2022/08/25 07:30:59;;;;;;;3.80;1.13;;;;;;;21.87;62.10;99635.78;5015621;28;20044;-66
2022/08/25 07:35:13;;;;;;;32.90;2.33;;;;;;;21.67;62.67;99623.09;5033510;28;20071;-65
2022/08/25 07:36:34;;;;;;;32.23;2.77;;;;;;;21.84;63.34;99635.13;4990553;28;20346;-67
2022/08/25 07:39:29;;;;;;;24.53;2.30;;;;;;;21.84;63.72;99629.81;5023126;28;20293;-69
2022/08/25 07:42:19;;;;;;;16.70;2.07;;;;;;;21.83;63.81;99639.59;5033039;28;20060;-64
2022/08/25 07:45:35;;;;;;;8.77;1.10;;;;;;;21.78;63.58;99638.25;5032828;28;20289;-64
2022/08/25 07:51:48;;;;;;;37.17;4.60;;;;;;;21.73;63.71;99643.91;4997677;28;20053;-64
2022/08/25 07:58:21;;;;;;;8.83;1.10;;;;;;;21.50;64.26;99633.13;4949698;29;20339;-64
2022/08/25 08:01:28;;;;;;;8.63;1.13;;;;;;;21.40;64.45;99636.56;4954258;29;20410;-62
2022/08/25 08:10:49;;;;;;;23.27;2.37;;;;;;;21.20;65.04;99624.66;4943235;29;20283;-63
2022/08/25 08:13:46;;;;;;;15.57;2.00;;;;;;;21.16;65.25;99628.47;4963638;28;21270;-64
2022/08/25 08:19:23;;;;;;;10.40;1.20;;;;;;;21.09;66.00;99639.53;4963118;28;20302;-63
2022/08/25 08:22:10;;;;;;;8.90;1.60;;;;;;;21.03;65.94;99645.25;4963274;29;20307;-63
2022/08/25 08:28:05;;;;;;;7.07;1.17;;;;;;;20.73;66.38;99647.38;4993270;28;20348;-63
2022/08/25 08:33:52;;;;;;;9.03;1.20;;;;;;;20.42;67.03;99634.38;4963945;28;20290;-62
2022/08/25 08:36:57;;;;;;;11.13;1.30;;;;;;;20.48;67.34;99657.81;4973019;28;20293;-63
2022/08/25 08:40:03;;;;;;;;;;;;;;;;;;;;;
2022/08/25 08:44:00;;;;;;;;;;;;;;;;;;;;;
2022/08/25 08:50:51;;;;;;;;;;;;;;;19.75;69.00;99650.25;4867592;29;20307;-64
2022/08/25 08:54:24;;;;;;;;;;;;;;;;;;;;;
2022/08/25 08:57:43;;;;;;;8.95;1.08;;;;;;;19.55;70.35;99663.88;4905653;29;20132;-63
2022/08/25 09:07:11;;;;;;;20.63;2.40;;;;;;;18.61;72.32;99627.22;4858942;29;20286;-64
2022/08/25 09:10:20;;;;;;;27.73;2.73;;;;;;;18.73;73.12;99681.22;4818143;29;20393;-64
2022/08/25 09:20:24;;;;;;;15.50;1.83;;;;;;;18.36;75.03;99688.66;4850030;29;20296;-63
2022/08/25 09:37:05;;;;;;;9.53;1.50;;;;;;;17.80;78.49;99701.50;4942527;29;20356;-63
2022/08/25 09:40:04;;;;;;;12.30;1.67;;;;;;;17.83;78.56;99701.31;4951877;28;20303;-62
2022/08/25 09:43:04;;;;;;;7.00;2.13;;;;;;;17.53;79.20;99666.00;5040291;28;20438;-62
2022/08/25 09:45:46;;;;;;;16.23;2.80;;;;;;;17.69;79.54;99699.41;5039544;28;20612;-63
2022/08/25 09:49:03;;;;;;;15.60;2.50;;;;;;;17.61;80.08;99701.63;5039307;28;20304;-63
2022/08/25 09:52:19;;;;;;;20.73;2.13;;;;;;;17.53;80.64;99702.97;5017028;28;20378;-62
2022/08/25 09:55:38;;;;;;;11.23;2.00;;;;;;;17.30;80.94;99669.84;5039870;28;20430;-62
2022/08/25 09:58:41;;;;;;;13.77;1.73;;;;;;;17.31;81.19;99700.63;5039747;28;20273;-62
2022/08/25 10:01:51;;;;;;;16.47;1.90;;;;;;;17.19;81.29;99688.91;5038962;28;20340;-67
2022/08/25 10:04:51;;;;;;;53.13;3.75;;;;;;;17.31;81.92;99713.84;5070802;28;20638;-64
2022/08/25 10:11:36;;;;;;;17.77;3.20;;;;;;;17.01;82.95;99685.47;5081066;28;20302;-62
2022/08/25 10:18:32;;;;;;;16.03;2.13;;;;;;;17.03;83.53;99715.28;4963287;28;20282;-63
2022/08/25 10:21:20;;;;;;;23.37;2.20;;;;;;;16.77;83.78;99687.53;4934769;29;20498;-63
2022/08/25 10:24:06;;;;;;;9.83;1.80;;;;;;;16.88;84.36;99721.34;4939905;29;20309;-63
2022/08/25 10:26:56;;;;;;;17.60;2.70;;;;;;;16.81;84.34;99713.72;4961517;29;20365;-64
2022/08/25 10:30:12;;;;;;;14.57;2.40;;;;;;;16.78;84.62;99721.81;4960672;29;20325;-63
2022/08/25 10:33:33;;;;;;;16.17;2.43;;;;;;;16.57;85.06;99692.06;4960230;29;20332;-63
2022/08/25 10:43:59;;;;;;;16.58;2.70;;;;;;;16.57;86.01;99741.31;4927000;29;20386;-63
2022/08/25 10:47:05;;;;;;;16.90;2.53;;;;;;;16.48;86.17;99747.06;4960057;29;20063;-64
2022/08/25 10:58:01;;;;;;;14.73;2.87;;;;;;;16.33;86.73;99777.66;4795619;29;20321;-65
2022/08/25 11:00:46;;;;;;;;;;;;;;;16.28;87.13;99769.09;4784687;30;20294;-63
2022/08/25 11:03:46;;;;;;;19.00;5.00;;;;;;;16.20;87.54;99758.06;4784778;30;19930;-64
2022/08/25 11:06:37;;;;;;;18.93;4.10;;;;;;;16.21;87.64;99747.44;4936561;29;20310;-62
2022/08/25 11:09:21;;;;;;;15.80;4.20;;;;;;;16.25;87.24;99770.09;4939610;29;20331;-63
2022/08/25 11:12:05;;;;;;;13.13;3.35;;;;;;;16.16;87.33;99754.72;4941068;29;20284;-63
2022/08/25 11:14:58;;;;;;;11.40;2.77;;;;;;;16.09;87.98;99738.34;4939773;29;20087;-63
2022/08/25 11:17:56;;;;;;;15.87;2.93;;;;;;;16.12;88.53;99737.34;4941505;29;20405;-62
2022/08/25 11:21:02;;;;;;;19.73;3.00;;;;;;;16.19;88.53;99749.28;4941462;29;20309;-61
2022/08/25 11:23:53;;;;;;;16.00;3.77;;;;;;;16.16;88.59;99739.75;4894840;29;20311;-63
2022/08/25 11:26:46;;;;;;;27.93;4.23;;;;;;;16.12;89.15;99738.19;4916455;29;20283;-62
2022/08/25 11:29:42;;;;;;;22.13;3.63;;;;;;;15.79;89.44;99695.84;4941472;29;20351;-62
2022/08/25 11:32:37;;;;;;;19.10;2.97;;;;;;;16.10;89.72;99744.44;5038530;28;20312;-63
2022/08/25 11:39:00;;;;;;;21.10;3.33;;;;;;;16.11;90.67;99743.53;5079238;28;20302;-62
2022/08/25 11:41:51;;;;;;;20.73;3.50;;;;;;;15.95;91.36;99704.75;5049061;28;20430;-62
2022/08/25 11:44:56;;;;;;;27.63;3.57;;;;;;;16.31;91.66;99742.59;5079184;28;20075;-62
2022/08/25 11:55:00;;;;;;;22.73;3.33;;;;;;;16.47;92.13;99740.03;5078451;28;20321;-61
2022/08/25 11:57:49;;;;;;;12.93;2.43;;;;;;;16.49;91.65;99743.47;5079951;28;20794;-63
2022/08/25 12:04:23;;;;;;;13.80;2.97;;;;;;;15.86;89.84;99689.38;5057946;28;20405;-61
2022/08/25 12:08:37;;;;;;;10.90;2.27;;;;;;;15.92;89.92;99752.28;5056205;28;20307;-61
2022/08/25 12:11:13;;;;;;;11.07;2.10;;;;;;;15.76;90.63;99756.56;5056623;28;20288;-62
2022/08/25 12:13:53;;;;;;;9.05;1.85;;;;;;;15.58;90.93;99725.78;5012227;28;20120;-61
2022/08/25 12:17:16;;;;;;;16.80;2.27;;;;;;;15.82;91.16;99756.28;5047291;28;20196;-65
2022/08/25 12:20:17;;;;;;;16.03;2.60;;;;;;;15.88;91.63;99756.03;4957174;28;20288;-64
2022/08/25 12:23:08;;;;;;;44.13;6.30;;;;;;;15.78;91.85;99731.03;5037280;28;20300;-64
2022/08/25 12:26:30;;;;;;;24.90;4.37;;;;;;;15.86;91.77;99742.06;5026798;28;20295;-61
2022/08/25 12:29:14;;;;;;;14.60;2.93;;;;;;;15.96;91.40;99759.13;5044201;28;20358;-64
2022/08/25 12:32:08;;;;;;;15.95;2.70;;;;;;;15.96;91.08;99759.13;5043408;28;20310;-62
2022/08/25 12:35:32;;;;;;;8.90;2.80;;;;;;;15.98;90.83;99760.88;5027677;28;20069;-62
2022/08/25 12:38:19;;;;;;;10.27;2.23;;;;;;;15.92;90.42;99765.47;4946375;29;20347;-62
2022/08/25 12:41:08;;;;;;;10.70;5.32;;;;;;;15.77;89.98;99763.53;4962073;28;20321;-62
2022/08/25 12:43:53;;;;;;;18.77;10.57;;;;;;;15.53;90.38;99744.44;4985321;28;20138;-61
2022/08/25 12:46:46;;;;;;;14.90;8.57;;;;;;;15.60;91.20;99764.31;4984913;28;20305;-62
2022/08/25 12:49:37;;;;;;;8.60;4.67;;;;;;;15.56;91.20;99759.22;4984769;28;20606;-62
2022/08/25 12:52:17;;;;;;;11.90;4.57;;;;;;;15.38;91.28;99734.59;4969410;28;20314;-62
2022/08/25 12:54:57;;;;;;;11.80;3.87;;;;;;;15.41;91.57;99737.94;4983701;28;20286;-61
2022/08/25 12:57:48;;;;;;;11.53;2.73;;;;;;;15.33;91.57;99737.41;4984810;28;20286;-61
2022/08/25 13:00:50;;;;;;;6.93;2.00;;;;;;;15.25;91.57;99735.13;4984502;28;20378;-63
2022/08/25 13:04:47;;;;;;;9.32;1.95;;;;;;;15.07;91.90;99726.25;4984381;28;20324;-62
2022/08/25 13:08:09;;;;;;;8.03;2.23;;;;;;;14.94;91.85;99735.59;4984668;28;20077;-62
2022/08/25 13:10:55;;;;;;;9.30;1.40;;;;;;;14.85;92.21;99738.59;4984402;28;20349;-62
2022/08/25 13:13:51;;;;;;;7.60;2.07;;;;;;;14.86;92.58;99737.69;4936166;28;20663;-64
2022/08/25 13:16:40;;;;;;;6.50;1.83;;;;;;;14.89;92.57;99737.56;4968482;28;20286;-63
2022/08/25 13:19:24;;;;;;;10.03;2.20;;;;;;;14.86;92.47;99742.97;4955122;28;20353;-62
2022/08/25 13:22:44;;;;;;;10.43;2.00;;;;;;;14.79;92.47;99728.34;4993306;28;20340;-64
2022/08/25 13:25:36;;;;;;;5.30;1.52;;;;;;;14.56;92.80;99692.50;5003720;28;20305;-63
2022/08/25 13:28:31;;;;;;;14.50;2.07;;;;;;;14.87;93.13;99723.63;5002573;28;20117;-61
2022/08/25 13:31:14;;;;;;;8.07;1.50;;;;;;;14.93;92.84;99733.88;5003941;28;20300;-66
2022/08/25 13:34:24;;;;;;;9.87;1.50;;;;;;;14.95;92.83;99721.53;5001305;28;20293;-62
2022/08/25 13:40:28;;;;;;;8.53;1.73;;;;;;;15.09;92.72;99740.19;5003717;28;20344;-62
2022/08/25 13:43:20;;;;;;;10.63;2.27;;;;;;;15.15;92.92;99748.75;5003131;28;20447;-61
2022/08/25 13:46:01;;;;;;;10.33;2.20;;;;;;;15.27;93.24;99748.19;5003369;28;20309;-63
2022/08/25 13:48:45;;;;;;;16.60;2.73;;;;;;;15.31;93.66;99739.25;5054870;28;20310;-62
2022/08/25 13:51:31;;;;;;;15.00;2.53;;;;;;;15.50;94.13;99750.69;5031826;28;20323;-63
2022/08/25 13:54:10;;;;;;;12.47;2.00;;;;;;;15.59;93.95;99751.19;5033392;28;20068;-63
2022/08/25 13:56:51;;;;;;;11.23;2.10;;;;;;;15.53;93.60;99742.66;5064290;28;20343;-62
2022/08/25 13:59:57;;;;;;;6.47;1.97;;;;;;;15.61;94.00;99741.44;4987879;28;20341;-64
2022/08/25 14:02:53;;;;;;;10.68;2.20;;;;;;;15.63;93.84;99744.88;5046871;28;20341;-62
2022/08/25 14:06:09;;;;;;;11.63;1.80;;;;;;;15.62;94.08;99748.41;5063977;28;20089;-63
2022/08/25 14:09:19;;;;;;;9.53;2.10;;;;;;;15.63;94.11;99752.78;5064061;28;20291;-63
2022/08/25 14:12:12;;;;;;;8.67;1.80;;;;;;;15.68;94.16;99761.31;5063896;28;20299;-62
2022/08/25 14:15:06;;;;;;;5.57;2.67;;;;;;;15.70;93.96;99751.56;5064326;28;20299;-62
2022/08/25 14:17:44;;;;;;;14.67;2.33;;;;;;;15.67;94.33;99756.97;5062613;28;20306;-61
2022/08/25 14:20:32;;;;;;;10.20;2.07;;;;;;;15.56;94.74;99723.22;5062854;28;20425;-62
2022/08/25 14:23:17;;;;;;;10.00;2.40;;;;;;;15.47;94.95;99692.88;5063506;28;21593;-62
2022/08/25 14:26:10;;;;;;;10.07;2.83;;;;;;;15.78;95.12;99731.03;5063313;28;20315;-63
2022/08/25 14:33:06;;;;;;;15.47;3.30;;;;;;;15.63;95.96;99702.75;5063515;28;20279;-62
2022/08/25 14:39:39;;;;;;;16.57;3.17;;;;;;;15.70;96.44;99701.53;4986892;28;20352;-62
2022/08/25 14:42:58;;;;;;;15.83;3.07;;;;;;;15.72;96.35;99702.31;5041442;28;20407;-62
2022/08/25 14:49:38;;;;;;;22.33;3.10;;;;;;;15.59;96.25;99680.09;4964019;29;20306;-61
2022/08/25 14:52:42;;;;;;;10.90;2.70;;;;;;;15.63;96.18;99686.94;4963978;29;20373;-62
2022/08/25 14:55:54;;;;;;;18.17;3.87;;;;;;;15.61;95.82;99678.25;4910029;29;20284;-64
2022/08/25 14:58:38;;;;;;;18.67;3.53;;;;;;;15.57;96.11;99666.13;4963507;28;20330;-64
2022/08/25 15:01:27;;;;;;;11.17;2.67;;;;;;;15.54;96.16;99681.16;4963663;29;20070;-62
2022/08/25 15:04:09;;;;;;;19.77;2.87;;;;;;;15.56;95.82;99674.97;4963505;29;20298;-64
2022/08/25 15:06:59;;;;;;;14.13;3.23;;;;;;;15.50;96.11;99669.06;4963466;29;20379;-64
2022/08/25 15:09:38;;;;;;;13.37;3.67;;;;;;;15.53;96.66;99681.22;4963332;29;20291;-63
2022/08/25 15:12:33;;;;;;;11.00;2.70;;;;;;;15.53;96.98;99676.81;4972941;28;20293;-65
2022/08/25 15:18:33;;;;;;;12.88;2.90;;;;;;;15.52;96.71;99675.13;5002265;28;20076;-62
2022/08/25 15:21:11;;;;;;;13.83;2.87;;;;;;;15.51;96.40;99670.75;4955770;28;20220;-62
2022/08/25 15:24:01;;;;;;;14.50;3.07;;;;;;;15.50;96.26;99663.81;4958056;28;20290;-62
2022/08/25 15:26:49;;;;;;;12.00;3.15;;;;;;;15.47;95.88;99660.44;5039766;28;20291;-62
2022/08/25 15:29:33;;;;;;;13.40;2.80;;;;;;;15.38;95.97;99640.66;5062799;28;20527;-62
2022/08/25 15:32:11;;;;;;;18.20;2.67;;;;;;;15.34;96.13;99644.34;5063135;28;20287;-64
2022/08/25 15:34:55;;;;;;;14.93;3.00;;;;;;;15.52;96.15;99654.06;5062867;28;20303;-65
2022/08/25 15:37:46;;;;;;;10.10;2.77;;;;;;;15.57;96.22;99650.34;5062014;28;20770;-65
2022/08/25 15:40:38;;;;;;;12.90;2.50;;;;;;;15.62;96.63;99659.72;5030031;28;20288;-64
2022/08/25 15:43:20;;;;;;;11.77;2.50;;;;;;;15.68;96.97;99653.34;5062569;28;20295;-64
2022/08/25 15:48:58;;;;;;;11.97;3.00;;;;;;;15.76;97.61;99653.84;5006445;28;20292;-64
2022/08/25 15:51:41;;;;;;;22.63;3.57;;;;;;;15.51;97.91;99610.19;5028431;28;20619;-65
2022/08/25 15:54:24;;;;;;;10.77;3.50;;;;;;;15.79;98.48;99644.94;5063327;28;20343;-66
2022/08/25 15:57:11;;;;;;;12.83;4.37;;;;;;;15.85;98.79;99637.63;5062996;28;20311;-64
2022/08/25 16:00:16;;;;;;;16.67;4.50;;;;;;;15.88;99.06;99637.47;5018435;28;20291;-65
2022/08/25 16:02:52;;;;;;;14.07;4.67;;;;;;;15.87;99.28;99630.47;5066683;28;20331;-65
2022/08/25 16:05:36;;;;;;;19.70;5.40;;;;;;;16.01;99.25;99650.03;5066615;28;20395;-64
2022/08/25 16:08:23;;;;;;;16.30;5.43;;;;;;;16.07;99.27;99639.19;5065847;28;20351;-65
2022/08/25 16:11:05;;;;;;;11.77;4.80;;;;;;;16.06;99.54;99629.59;5065729;28;20284;-65
2022/08/25 16:14:05;;;;;;;16.77;4.93;;;;;;;16.13;99.40;99633.63;5064929;28;20299;-64